sensor_id;sensor_type;location;lat;lon;timestamp;temperature;humidity
44111;DHT22;29774;52.664;5.074;2022-11-15T00:00:53;8.80;79.60
44111;DHT22;29774;52.664;5.074;2022-11-15T00:03:21;8.50;79.50
44111;DHT22;29774;52.664;5.074;2022-11-15T00:05:47;8.00;84.90
44111;DHT22;29774;52.664;5.074;2022-11-15T00:08:13;8.40;84.30
44111;DHT22;29774;52.664;5.074;2022-11-15T00:10:39;7.60;83.20
44111;DHT22;29774;52.664;5.074;2022-11-15T00:13:11;7.10;85.90
44111;DHT22;29774;52.664;5.074;2022-11-15T00:15:39;6.90;86.80
44111;DHT22;29774;52.664;5.074;2022-11-15T00:18:06;7.00;88.20
44111;DHT22;29774;52.664;5.074;2022-11-15T00:20:33;7.20;86.40
44111;DHT22;29774;52.664;5.074;2022-11-15T00:22:59;6.90;87.50
44111;DHT22;29774;52.664;5.074;2022-11-15T00:25:26;8.50;85.70
44111;DHT22;29774;52.664;5.074;2022-11-15T00:27:56;7.70;85.60
44111;DHT22;29774;52.664;5.074;2022-11-15T00:30:22;8.90;83.00
44111;DHT22;29774;52.664;5.074;2022-11-15T00:32:47;9.30;79.70
44111;DHT22;29774;52.664;5.074;2022-11-15T00:35:13;8.60;82.00
44111;DHT22;29774;52.664;5.074;2022-11-15T00:37:38;7.80;84.90
44111;DHT22;29774;52.664;5.074;2022-11-15T00:40:04;7.30;87.30
44111;DHT22;29774;52.664;5.074;2022-11-15T00:42:30;8.00;88.10
44111;DHT22;29774;52.664;5.074;2022-11-15T00:44:56;8.70;84.40
44111;DHT22;29774;52.664;5.074;2022-11-15T00:47:21;8.20;85.60
44111;DHT22;29774;52.664;5.074;2022-11-15T00:49:47;8.50;83.70
44111;DHT22;29774;52.664;5.074;2022-11-15T00:52:12;9.60;81.00
44111;DHT22;29774;52.664;5.074;2022-11-15T00:54:38;10.50;76.80
44111;DHT22;29774;52.664;5.074;2022-11-15T00:57:03;9.70;78.10
44111;DHT22;29774;52.664;5.074;2022-11-15T00:59:30;9.00;83.30
44111;DHT22;29774;52.664;5.074;2022-11-15T01:01:55;9.40;82.20
44111;DHT22;29774;52.664;5.074;2022-11-15T01:04:21;9.20;81.50
44111;DHT22;29774;52.664;5.074;2022-11-15T01:06:46;8.30;85.50
44111;DHT22;29774;52.664;5.074;2022-11-15T01:09:12;8.90;84.00
44111;DHT22;29774;52.664;5.074;2022-11-15T01:11:39;9.00;83.80
44111;DHT22;29774;52.664;5.074;2022-11-15T01:14:04;9.00;83.40
44111;DHT22;29774;52.664;5.074;2022-11-15T01:16:30;8.80;84.20
44111;DHT22;29774;52.664;5.074;2022-11-15T01:18:55;8.80;84.10
44111;DHT22;29774;52.664;5.074;2022-11-15T01:21:21;8.60;85.90
44111;DHT22;29774;52.664;5.074;2022-11-15T01:23:46;9.80;80.20
44111;DHT22;29774;52.664;5.074;2022-11-15T01:26:14;9.90;79.60
44111;DHT22;29774;52.664;5.074;2022-11-15T01:28:40;9.20;82.70
44111;DHT22;29774;52.664;5.074;2022-11-15T01:31:12;8.70;84.70
44111;DHT22;29774;52.664;5.074;2022-11-15T01:33:39;9.80;80.20
44111;DHT22;29774;52.664;5.074;2022-11-15T01:36:06;9.10;82.70
44111;DHT22;29774;52.664;5.074;2022-11-15T01:38:32;8.40;86.50
44111;DHT22;29774;52.664;5.074;2022-11-15T01:40:57;8.40;87.60
44111;DHT22;29774;52.664;5.074;2022-11-15T01:43:27;8.00;88.20
44111;DHT22;29774;52.664;5.074;2022-11-15T01:45:58;7.70;89.80
44111;DHT22;29774;52.664;5.074;2022-11-15T01:48:30;9.20;84.60
44111;DHT22;29774;52.664;5.074;2022-11-15T01:50:57;8.60;86.30
44111;DHT22;29774;52.664;5.074;2022-11-15T01:53:24;9.10;84.40
44111;DHT22;29774;52.664;5.074;2022-11-15T01:55:51;9.60;81.60
44111;DHT22;29774;52.664;5.074;2022-11-15T01:58:16;10.10;79.20
44111;DHT22;29774;52.664;5.074;2022-11-15T02:00:42;10.10;79.30
44111;DHT22;29774;52.664;5.074;2022-11-15T02:03:08;9.10;83.90
44111;DHT22;29774;52.664;5.074;2022-11-15T02:05:35;8.50;87.10
44111;DHT22;29774;52.664;5.074;2022-11-15T02:08:01;8.80;86.10
44111;DHT22;29774;52.664;5.074;2022-11-15T02:10:28;9.40;82.70
44111;DHT22;29774;52.664;5.074;2022-11-15T02:12:54;9.90;80.60
44111;DHT22;29774;52.664;5.074;2022-11-15T02:15:21;9.40;83.00
44111;DHT22;29774;52.664;5.074;2022-11-15T02:29:02;8.70;86.80
44111;DHT22;29774;52.664;5.074;2022-11-15T02:37:10;8.20;90.60
44111;DHT22;29774;52.664;5.074;2022-11-15T02:42:30;7.90;91.60
44111;DHT22;29774;52.664;5.074;2022-11-15T02:45:29;7.90;92.00
44111;DHT22;29774;52.664;5.074;2022-11-15T02:47:57;8.10;91.70
44111;DHT22;29774;52.664;5.074;2022-11-15T02:50:29;8.00;92.10
44111;DHT22;29774;52.664;5.074;2022-11-15T02:52:55;8.20;91.10
44111;DHT22;29774;52.664;5.074;2022-11-15T02:55:35;8.20;91.90
44111;DHT22;29774;52.664;5.074;2022-11-15T03:01:04;8.10;92.10
44111;DHT22;29774;52.664;5.074;2022-11-15T03:04:10;8.10;91.80
44111;DHT22;29774;52.664;5.074;2022-11-15T03:06:37;8.20;92.00
44111;DHT22;29774;52.664;5.074;2022-11-15T03:15:00;8.30;91.30
44111;DHT22;29774;52.664;5.074;2022-11-15T03:17:30;8.30;92.10
44111;DHT22;29774;52.664;5.074;2022-11-15T03:20:06;8.60;91.80
44111;DHT22;29774;52.664;5.074;2022-11-15T03:22:44;8.60;90.60
44111;DHT22;29774;52.664;5.074;2022-11-15T03:25:16;9.20;88.50
44111;DHT22;29774;52.664;5.074;2022-11-15T03:27:46;8.70;90.50
44111;DHT22;29774;52.664;5.074;2022-11-15T03:30:13;8.70;91.10
44111;DHT22;29774;52.664;5.074;2022-11-15T03:32:56;8.80;90.70
44111;DHT22;29774;52.664;5.074;2022-11-15T03:35:27;9.20;88.10
44111;DHT22;29774;52.664;5.074;2022-11-15T03:38:15;9.00;89.50
44111;DHT22;29774;52.664;5.074;2022-11-15T03:40:48;8.80;90.90
44111;DHT22;29774;52.664;5.074;2022-11-15T03:46:25;8.70;92.40
44111;DHT22;29774;52.664;5.074;2022-11-15T03:49:00;8.70;92.30
44111;DHT22;29774;52.664;5.074;2022-11-15T03:51:29;8.70;92.60
44111;DHT22;29774;52.664;5.074;2022-11-15T03:53:55;8.70;92.80
44111;DHT22;29774;52.664;5.074;2022-11-15T03:56:20;8.70;93.20
44111;DHT22;29774;52.664;5.074;2022-11-15T03:58:46;8.90;92.80
44111;DHT22;29774;52.664;5.074;2022-11-15T04:01:11;9.60;87.90
44111;DHT22;29774;52.664;5.074;2022-11-15T04:03:37;9.40;89.80
44111;DHT22;29774;52.664;5.074;2022-11-15T04:06:03;9.50;86.60
44111;DHT22;29774;52.664;5.074;2022-11-15T04:08:28;9.50;89.00
44111;DHT22;29774;52.664;5.074;2022-11-15T04:10:54;9.70;87.70
44111;DHT22;29774;52.664;5.074;2022-11-15T04:13:19;9.70;88.60
44111;DHT22;29774;52.664;5.074;2022-11-15T04:15:45;9.60;89.40
44111;DHT22;29774;52.664;5.074;2022-11-15T04:18:10;9.90;86.80
44111;DHT22;29774;52.664;5.074;2022-11-15T04:20:36;10.10;85.40
44111;DHT22;29774;52.664;5.074;2022-11-15T04:23:22;10.00;84.60
44111;DHT22;29774;52.664;5.074;2022-11-15T04:26:12;10.20;82.00
44111;DHT22;29774;52.664;5.074;2022-11-15T04:28:38;10.30;81.60
44111;DHT22;29774;52.664;5.074;2022-11-15T04:31:23;10.20;86.60
44111;DHT22;29774;52.664;5.074;2022-11-15T04:33:49;10.20;85.90
44111;DHT22;29774;52.664;5.074;2022-11-15T04:36:14;10.30;82.30
44111;DHT22;29774;52.664;5.074;2022-11-15T04:38:58;10.10;87.60
44111;DHT22;29774;52.664;5.074;2022-11-15T04:41:24;10.10;85.90
44111;DHT22;29774;52.664;5.074;2022-11-15T04:43:50;10.10;88.50
44111;DHT22;29774;52.664;5.074;2022-11-15T04:46:15;10.40;85.70
44111;DHT22;29774;52.664;5.074;2022-11-15T04:48:41;10.30;87.30
44111;DHT22;29774;52.664;5.074;2022-11-15T04:51:06;10.10;86.00
44111;DHT22;29774;52.664;5.074;2022-11-15T04:53:32;10.60;83.50
44111;DHT22;29774;52.664;5.074;2022-11-15T04:55:57;10.60;81.90
44111;DHT22;29774;52.664;5.074;2022-11-15T04:58:23;10.40;84.70
44111;DHT22;29774;52.664;5.074;2022-11-15T05:00:49;10.30;87.60
44111;DHT22;29774;52.664;5.074;2022-11-15T05:03:14;10.30;87.20
44111;DHT22;29774;52.664;5.074;2022-11-15T05:05:58;10.10;86.30
44111;DHT22;29774;52.664;5.074;2022-11-15T05:08:24;10.30;88.00
44111;DHT22;29774;52.664;5.074;2022-11-15T05:10:50;10.40;87.30
44111;DHT22;29774;52.664;5.074;2022-11-15T05:13:15;10.20;87.70
44111;DHT22;29774;52.664;5.074;2022-11-15T05:15:41;10.60;84.60
44111;DHT22;29774;52.664;5.074;2022-11-15T05:18:07;10.50;84.80
44111;DHT22;29774;52.664;5.074;2022-11-15T05:20:32;10.70;85.60
44111;DHT22;29774;52.664;5.074;2022-11-15T05:22:58;10.70;86.10
44111;DHT22;29774;52.664;5.074;2022-11-15T05:25:24;10.60;83.00
44111;DHT22;29774;52.664;5.074;2022-11-15T05:27:50;10.60;81.20
44111;DHT22;29774;52.664;5.074;2022-11-15T05:30:15;10.90;83.10
44111;DHT22;29774;52.664;5.074;2022-11-15T05:32:42;10.70;84.40
44111;DHT22;29774;52.664;5.074;2022-11-15T05:35:10;10.90;83.10
44111;DHT22;29774;52.664;5.074;2022-11-15T05:37:37;10.70;86.40
44111;DHT22;29774;52.664;5.074;2022-11-15T05:40:03;10.40;89.20
44111;DHT22;29774;52.664;5.074;2022-11-15T05:42:29;10.20;90.90
44111;DHT22;29774;52.664;5.074;2022-11-15T05:44:56;10.50;84.40
44111;DHT22;29774;52.664;5.074;2022-11-15T05:47:24;10.40;89.10
44111;DHT22;29774;52.664;5.074;2022-11-15T05:49:52;10.50;87.50
44111;DHT22;29774;52.664;5.074;2022-11-15T05:52:20;10.60;83.60
44111;DHT22;29774;52.664;5.074;2022-11-15T05:54:48;10.60;84.80
44111;DHT22;29774;52.664;5.074;2022-11-15T05:57:14;10.80;85.00
44111;DHT22;29774;52.664;5.074;2022-11-15T05:59:40;10.60;87.80
44111;DHT22;29774;52.664;5.074;2022-11-15T06:02:06;10.70;81.80
44111;DHT22;29774;52.664;5.074;2022-11-15T06:04:32;10.70;87.00
44111;DHT22;29774;52.664;5.074;2022-11-15T06:06:58;10.60;86.50
44111;DHT22;29774;52.664;5.074;2022-11-15T06:09:24;10.50;89.40
44111;DHT22;29774;52.664;5.074;2022-11-15T06:11:50;10.40;89.00
44111;DHT22;29774;52.664;5.074;2022-11-15T06:14:15;10.60;89.00
44111;DHT22;29774;52.664;5.074;2022-11-15T06:16:41;10.70;81.80
44111;DHT22;29774;52.664;5.074;2022-11-15T06:19:06;11.00;81.10
44111;DHT22;29774;52.664;5.074;2022-11-15T06:21:33;11.00;82.80
44111;DHT22;29774;52.664;5.074;2022-11-15T06:23:58;11.00;81.00
44111;DHT22;29774;52.664;5.074;2022-11-15T06:26:24;11.10;83.20
44111;DHT22;29774;52.664;5.074;2022-11-15T06:28:49;10.90;85.20
44111;DHT22;29774;52.664;5.074;2022-11-15T06:31:15;10.90;82.80
44111;DHT22;29774;52.664;5.074;2022-11-15T06:33:41;11.00;84.70
44111;DHT22;29774;52.664;5.074;2022-11-15T06:36:10;11.00;81.10
44111;DHT22;29774;52.664;5.074;2022-11-15T06:38:36;11.30;79.80
44111;DHT22;29774;52.664;5.074;2022-11-15T06:41:07;11.30;81.00
44111;DHT22;29774;52.664;5.074;2022-11-15T06:43:33;11.10;81.80
44111;DHT22;29774;52.664;5.074;2022-11-15T06:46:00;11.10;86.50
44111;DHT22;29774;52.664;5.074;2022-11-15T06:48:26;11.20;81.20
44111;DHT22;29774;52.664;5.074;2022-11-15T06:50:57;11.10;84.90
44111;DHT22;29774;52.664;5.074;2022-11-15T06:53:23;11.00;84.00
44111;DHT22;29774;52.664;5.074;2022-11-15T06:55:49;11.00;83.80
44111;DHT22;29774;52.664;5.074;2022-11-15T06:58:15;11.10;85.00
44111;DHT22;29774;52.664;5.074;2022-11-15T07:00:41;11.20;81.50
44111;DHT22;29774;52.664;5.074;2022-11-15T07:03:07;11.10;83.40
44111;DHT22;29774;52.664;5.074;2022-11-15T07:05:33;11.10;82.80
44111;DHT22;29774;52.664;5.074;2022-11-15T07:07:59;11.10;81.90
44111;DHT22;29774;52.664;5.074;2022-11-15T07:10:25;11.20;79.60
44111;DHT22;29774;52.664;5.074;2022-11-15T07:12:52;11.40;78.80
44111;DHT22;29774;52.664;5.074;2022-11-15T07:15:19;11.10;82.70
44111;DHT22;29774;52.664;5.074;2022-11-15T07:17:44;11.10;81.50
44111;DHT22;29774;52.664;5.074;2022-11-15T07:20:11;11.00;82.10
44111;DHT22;29774;52.664;5.074;2022-11-15T07:22:36;11.00;84.40
44111;DHT22;29774;52.664;5.074;2022-11-15T07:25:02;11.00;84.60
44111;DHT22;29774;52.664;5.074;2022-11-15T07:27:28;11.00;84.60
44111;DHT22;29774;52.664;5.074;2022-11-15T07:29:53;10.70;87.00
44111;DHT22;29774;52.664;5.074;2022-11-15T07:32:19;10.70;87.90
44111;DHT22;29774;52.664;5.074;2022-11-15T07:34:45;10.70;87.40
44111;DHT22;29774;52.664;5.074;2022-11-15T07:37:12;10.60;89.50
44111;DHT22;29774;52.664;5.074;2022-11-15T07:39:37;10.60;85.30
44111;DHT22;29774;52.664;5.074;2022-11-15T07:42:03;11.00;82.10
44111;DHT22;29774;52.664;5.074;2022-11-15T07:44:47;10.90;85.90
44111;DHT22;29774;52.664;5.074;2022-11-15T07:47:13;10.80;87.50
44111;DHT22;29774;52.664;5.074;2022-11-15T07:49:39;11.00;83.00
44111;DHT22;29774;52.664;5.074;2022-11-15T07:52:04;10.90;83.30
44111;DHT22;29774;52.664;5.074;2022-11-15T07:54:30;10.90;87.40
44111;DHT22;29774;52.664;5.074;2022-11-15T07:56:55;10.70;83.40
44111;DHT22;29774;52.664;5.074;2022-11-15T07:59:21;10.70;87.90
44111;DHT22;29774;52.664;5.074;2022-11-15T08:01:47;10.50;89.90
44111;DHT22;29774;52.664;5.074;2022-11-15T08:04:12;10.80;85.00
44111;DHT22;29774;52.664;5.074;2022-11-15T08:06:38;10.70;88.30
44111;DHT22;29774;52.664;5.074;2022-11-15T08:09:05;10.90;85.50
44111;DHT22;29774;52.664;5.074;2022-11-15T08:11:30;10.70;87.00
44111;DHT22;29774;52.664;5.074;2022-11-15T08:13:56;10.70;88.60
44111;DHT22;29774;52.664;5.074;2022-11-15T08:16:22;10.60;90.50
44111;DHT22;29774;52.664;5.074;2022-11-15T08:18:47;10.70;88.60
44111;DHT22;29774;52.664;5.074;2022-11-15T08:21:14;11.00;86.60
44111;DHT22;29774;52.664;5.074;2022-11-15T08:23:43;11.10;87.10
44111;DHT22;29774;52.664;5.074;2022-11-15T08:26:09;11.00;88.20
44111;DHT22;29774;52.664;5.074;2022-11-15T08:28:34;11.10;87.00
44111;DHT22;29774;52.664;5.074;2022-11-15T08:31:00;11.10;82.40
44111;DHT22;29774;52.664;5.074;2022-11-15T08:33:26;11.20;83.70
44111;DHT22;29774;52.664;5.074;2022-11-15T08:35:59;11.10;88.50
44111;DHT22;29774;52.664;5.074;2022-11-15T08:38:25;11.30;86.50
44111;DHT22;29774;52.664;5.074;2022-11-15T08:40:52;11.30;87.00
44111;DHT22;29774;52.664;5.074;2022-11-15T08:43:19;11.40;87.50
44111;DHT22;29774;52.664;5.074;2022-11-15T08:45:44;11.20;87.90
44111;DHT22;29774;52.664;5.074;2022-11-15T08:48:10;11.20;89.10
44111;DHT22;29774;52.664;5.074;2022-11-15T08:50:36;11.30;86.30
44111;DHT22;29774;52.664;5.074;2022-11-15T08:53:08;11.50;86.10
44111;DHT22;29774;52.664;5.074;2022-11-15T08:55:37;11.40;82.50
44111;DHT22;29774;52.664;5.074;2022-11-15T08:58:03;11.60;83.50
44111;DHT22;29774;52.664;5.074;2022-11-15T09:00:29;11.70;85.60
44111;DHT22;29774;52.664;5.074;2022-11-15T09:02:54;11.70;83.00
44111;DHT22;29774;52.664;5.074;2022-11-15T09:05:20;11.70;82.50
44111;DHT22;29774;52.664;5.074;2022-11-15T09:07:46;11.70;84.50
44111;DHT22;29774;52.664;5.074;2022-11-15T09:10:12;11.80;86.80
44111;DHT22;29774;52.664;5.074;2022-11-15T09:12:37;11.50;82.40
44111;DHT22;29774;52.664;5.074;2022-11-15T09:15:04;11.40;87.40
44111;DHT22;29774;52.664;5.074;2022-11-15T09:17:30;11.40;85.80
44111;DHT22;29774;52.664;5.074;2022-11-15T09:19:56;11.20;88.10
44111;DHT22;29774;52.664;5.074;2022-11-15T09:22:21;11.20;88.60
44111;DHT22;29774;52.664;5.074;2022-11-15T09:24:47;11.30;89.10
44111;DHT22;29774;52.664;5.074;2022-11-15T09:27:13;11.50;87.30
44111;DHT22;29774;52.664;5.074;2022-11-15T09:29:38;11.50;86.90
44111;DHT22;29774;52.664;5.074;2022-11-15T09:32:04;11.50;84.80
44111;DHT22;29774;52.664;5.074;2022-11-15T09:34:30;11.70;83.60
44111;DHT22;29774;52.664;5.074;2022-11-15T09:36:55;11.80;85.80
44111;DHT22;29774;52.664;5.074;2022-11-15T09:39:21;11.70;79.50
44111;DHT22;29774;52.664;5.074;2022-11-15T09:50:00;11.60;84.00
44111;DHT22;29774;52.664;5.074;2022-11-15T09:52:26;11.60;84.60
44111;DHT22;29774;52.664;5.074;2022-11-15T09:54:53;11.60;83.50
44111;DHT22;29774;52.664;5.074;2022-11-15T09:57:32;11.70;84.80
44111;DHT22;29774;52.664;5.074;2022-11-15T10:00:13;11.90;85.60
44111;DHT22;29774;52.664;5.074;2022-11-15T10:05:45;12.10;83.30
44111;DHT22;29774;52.664;5.074;2022-11-15T10:10:42;12.20;81.00
44111;DHT22;29774;52.664;5.074;2022-11-15T10:13:17;12.20;81.50
44111;DHT22;29774;52.664;5.074;2022-11-15T10:15:46;12.40;81.00
44111;DHT22;29774;52.664;5.074;2022-11-15T10:18:35;12.60;81.30
44111;DHT22;29774;52.664;5.074;2022-11-15T10:21:21;12.70;77.60
44111;DHT22;29774;52.664;5.074;2022-11-15T10:23:50;12.50;77.20
44111;DHT22;29774;52.664;5.074;2022-11-15T10:26:16;12.40;78.40
44111;DHT22;29774;52.664;5.074;2022-11-15T10:28:42;12.50;78.60
44111;DHT22;29774;52.664;5.074;2022-11-15T10:31:26;12.50;78.20
44111;DHT22;29774;52.664;5.074;2022-11-15T10:34:05;12.50;78.80
44111;DHT22;29774;52.664;5.074;2022-11-15T10:36:36;12.60;80.20
44111;DHT22;29774;52.664;5.074;2022-11-15T10:39:03;12.60;79.70
44111;DHT22;29774;52.664;5.074;2022-11-15T10:41:31;12.70;78.90
44111;DHT22;29774;52.664;5.074;2022-11-15T10:44:11;12.40;80.70
44111;DHT22;29774;52.664;5.074;2022-11-15T10:46:44;12.30;78.90
44111;DHT22;29774;52.664;5.074;2022-11-15T10:49:23;12.50;81.70
44111;DHT22;29774;52.664;5.074;2022-11-15T10:51:53;12.60;81.70
44111;DHT22;29774;52.664;5.074;2022-11-15T10:56:59;12.50;79.90
44111;DHT22;29774;52.664;5.074;2022-11-15T10:59:31;12.40;79.70
44111;DHT22;29774;52.664;5.074;2022-11-15T11:01:57;12.80;80.10
44111;DHT22;29774;52.664;5.074;2022-11-15T11:04:23;12.80;77.00
44111;DHT22;29774;52.664;5.074;2022-11-15T11:06:58;12.90;79.40
44111;DHT22;29774;52.664;5.074;2022-11-15T11:09:35;12.70;77.30
44111;DHT22;29774;52.664;5.074;2022-11-15T11:12:03;12.60;78.50
44111;DHT22;29774;52.664;5.074;2022-11-15T11:14:31;12.80;78.10
44111;DHT22;29774;52.664;5.074;2022-11-15T11:17:16;12.60;76.70
44111;DHT22;29774;52.664;5.074;2022-11-15T11:25:34;12.30;78.00
44111;DHT22;29774;52.664;5.074;2022-11-15T11:36:54;12.30;77.40
44111;DHT22;29774;52.664;5.074;2022-11-15T11:42:03;12.20;79.20
44111;DHT22;29774;52.664;5.074;2022-11-15T11:44:43;12.20;78.30
44111;DHT22;29774;52.664;5.074;2022-11-15T11:47:32;12.10;79.00
44111;DHT22;29774;52.664;5.074;2022-11-15T11:50:14;12.00;79.10
44111;DHT22;29774;52.664;5.074;2022-11-15T11:55:36;12.10;78.80
44111;DHT22;29774;52.664;5.074;2022-11-15T12:00:37;12.10;79.50
44111;DHT22;29774;52.664;5.074;2022-11-15T12:03:35;12.20;78.50
44111;DHT22;29774;52.664;5.074;2022-11-15T12:06:02;12.20;78.70
44111;DHT22;29774;52.664;5.074;2022-11-15T12:08:36;12.10;78.60
44111;DHT22;29774;52.664;5.074;2022-11-15T12:11:11;12.10;79.50
44111;DHT22;29774;52.664;5.074;2022-11-15T12:13:39;12.10;79.20
44111;DHT22;29774;52.664;5.074;2022-11-15T12:16:19;12.10;79.00
44111;DHT22;29774;52.664;5.074;2022-11-15T12:18:50;12.00;79.40
44111;DHT22;29774;52.664;5.074;2022-11-15T12:24:12;11.90;79.70
44111;DHT22;29774;52.664;5.074;2022-11-15T12:26:50;11.80;80.30
44111;DHT22;29774;52.664;5.074;2022-11-15T12:29:25;11.90;80.60
44111;DHT22;29774;52.664;5.074;2022-11-15T12:31:55;11.90;79.30
44111;DHT22;29774;52.664;5.074;2022-11-15T12:36:49;12.00;79.20
44111;DHT22;29774;52.664;5.074;2022-11-15T12:39:16;12.00;79.30
44111;DHT22;29774;52.664;5.074;2022-11-15T13:02:37;12.10;78.50
44111;DHT22;29774;52.664;5.074;2022-11-15T13:17:52;11.80;80.10
44111;DHT22;29774;52.664;5.074;2022-11-15T13:20:24;11.70;81.10
44111;DHT22;29774;52.664;5.074;2022-11-15T13:23:12;11.70;81.40
44111;DHT22;29774;52.664;5.074;2022-11-15T13:31:13;11.70;81.80
44111;DHT22;29774;52.664;5.074;2022-11-15T13:33:42;11.70;82.20
44111;DHT22;29774;52.664;5.074;2022-11-15T13:36:32;11.70;82.00
44111;DHT22;29774;52.664;5.074;2022-11-15T13:41:50;11.80;80.30
44111;DHT22;29774;52.664;5.074;2022-11-15T13:44:22;11.80;80.50
44111;DHT22;29774;52.664;5.074;2022-11-15T13:46:48;11.80;81.00
44111;DHT22;29774;52.664;5.074;2022-11-15T13:49:13;11.80;80.50
44111;DHT22;29774;52.664;5.074;2022-11-15T13:51:47;11.80;81.10
44111;DHT22;29774;52.664;5.074;2022-11-15T13:56:48;11.80;80.90
44111;DHT22;29774;52.664;5.074;2022-11-15T13:59:29;11.70;81.00
44111;DHT22;29774;52.664;5.074;2022-11-15T14:01:57;11.80;80.10
44111;DHT22;29774;52.664;5.074;2022-11-15T14:04:25;11.80;80.40
44111;DHT22;29774;52.664;5.074;2022-11-15T14:06:57;11.70;80.90
44111;DHT22;29774;52.664;5.074;2022-11-15T14:09:29;11.70;81.00
44111;DHT22;29774;52.664;5.074;2022-11-15T14:11:58;11.70;80.80
44111;DHT22;29774;52.664;5.074;2022-11-15T14:14:25;11.70;80.60
44111;DHT22;29774;52.664;5.074;2022-11-15T14:16:54;11.60;81.20
44111;DHT22;29774;52.664;5.074;2022-11-15T14:24:37;11.50;80.90
44111;DHT22;29774;52.664;5.074;2022-11-15T14:27:25;11.60;80.80
44111;DHT22;29774;52.664;5.074;2022-11-15T14:29:52;11.60;80.90
44111;DHT22;29774;52.664;5.074;2022-11-15T14:32:21;11.50;80.70
44111;DHT22;29774;52.664;5.074;2022-11-15T14:34:49;11.50;81.00
44111;DHT22;29774;52.664;5.074;2022-11-15T14:37:21;11.50;81.00
44111;DHT22;29774;52.664;5.074;2022-11-15T14:39:48;11.40;80.90
44111;DHT22;29774;52.664;5.074;2022-11-15T14:42:13;11.30;81.40
44111;DHT22;29774;52.664;5.074;2022-11-15T14:44:39;11.50;80.90
44111;DHT22;29774;52.664;5.074;2022-11-15T14:47:04;11.30;81.10
44111;DHT22;29774;52.664;5.074;2022-11-15T14:49:30;11.40;81.00
44111;DHT22;29774;52.664;5.074;2022-11-15T14:51:55;11.40;80.40
44111;DHT22;29774;52.664;5.074;2022-11-15T14:54:21;11.30;80.70
44111;DHT22;29774;52.664;5.074;2022-11-15T14:56:46;11.30;80.20
44111;DHT22;29774;52.664;5.074;2022-11-15T14:59:12;11.30;79.80
44111;DHT22;29774;52.664;5.074;2022-11-15T15:01:38;11.30;79.90
44111;DHT22;29774;52.664;5.074;2022-11-15T15:04:03;11.20;80.20
44111;DHT22;29774;52.664;5.074;2022-11-15T15:06:29;11.30;80.20
44111;DHT22;29774;52.664;5.074;2022-11-15T15:08:56;11.30;80.10
44111;DHT22;29774;52.664;5.074;2022-11-15T15:11:30;11.40;80.30
44111;DHT22;29774;52.664;5.074;2022-11-15T15:13:56;11.40;80.10
44111;DHT22;29774;52.664;5.074;2022-11-15T15:16:24;11.40;80.00
44111;DHT22;29774;52.664;5.074;2022-11-15T15:18:50;11.40;80.10
44111;DHT22;29774;52.664;5.074;2022-11-15T15:21:24;11.30;79.80
44111;DHT22;29774;52.664;5.074;2022-11-15T15:23:50;11.40;79.40
44111;DHT22;29774;52.664;5.074;2022-11-15T15:26:16;11.30;79.30
44111;DHT22;29774;52.664;5.074;2022-11-15T15:28:42;11.30;78.80
44111;DHT22;29774;52.664;5.074;2022-11-15T15:31:09;11.40;78.80
44111;DHT22;29774;52.664;5.074;2022-11-15T15:33:35;11.40;78.40
44111;DHT22;29774;52.664;5.074;2022-11-15T15:36:00;11.30;79.10
44111;DHT22;29774;52.664;5.074;2022-11-15T15:38:26;11.40;78.60
44111;DHT22;29774;52.664;5.074;2022-11-15T15:40:52;11.40;78.50
44111;DHT22;29774;52.664;5.074;2022-11-15T15:43:18;11.40;78.90
44111;DHT22;29774;52.664;5.074;2022-11-15T15:45:44;11.30;78.40
44111;DHT22;29774;52.664;5.074;2022-11-15T15:48:15;11.30;78.80
44111;DHT22;29774;52.664;5.074;2022-11-15T15:50:41;11.50;79.00
44111;DHT22;29774;52.664;5.074;2022-11-15T15:53:11;11.40;78.30
44111;DHT22;29774;52.664;5.074;2022-11-15T15:55:38;11.30;78.80
44111;DHT22;29774;52.664;5.074;2022-11-15T15:58:04;11.30;78.30
44111;DHT22;29774;52.664;5.074;2022-11-15T16:00:30;11.30;78.50
44111;DHT22;29774;52.664;5.074;2022-11-15T16:02:58;11.40;78.50
44111;DHT22;29774;52.664;5.074;2022-11-15T16:05:24;11.40;79.00
44111;DHT22;29774;52.664;5.074;2022-11-15T16:07:50;11.40;77.60
44111;DHT22;29774;52.664;5.074;2022-11-15T16:10:24;11.30;78.00
44111;DHT22;29774;52.664;5.074;2022-11-15T16:12:51;11.40;78.30
44111;DHT22;29774;52.664;5.074;2022-11-15T16:15:17;11.30;78.30
44111;DHT22;29774;52.664;5.074;2022-11-15T16:17:54;11.30;78.30
44111;DHT22;29774;52.664;5.074;2022-11-15T16:20:22;11.20;78.60
44111;DHT22;29774;52.664;5.074;2022-11-15T16:22:48;11.20;78.50
44111;DHT22;29774;52.664;5.074;2022-11-15T16:25:13;11.20;78.80
44111;DHT22;29774;52.664;5.074;2022-11-15T16:27:39;11.20;78.90
44111;DHT22;29774;52.664;5.074;2022-11-15T16:30:16;11.20;79.00
44111;DHT22;29774;52.664;5.074;2022-11-15T16:32:42;11.20;79.00
44111;DHT22;29774;52.664;5.074;2022-11-15T16:35:11;11.20;79.20
44111;DHT22;29774;52.664;5.074;2022-11-15T16:37:37;11.30;78.70
44111;DHT22;29774;52.664;5.074;2022-11-15T16:42:36;11.20;79.20
44111;DHT22;29774;52.664;5.074;2022-11-15T16:45:02;11.30;78.90
44111;DHT22;29774;52.664;5.074;2022-11-15T16:47:27;11.40;78.30
44111;DHT22;29774;52.664;5.074;2022-11-15T16:49:53;11.40;78.90
44111;DHT22;29774;52.664;5.074;2022-11-15T16:52:18;11.50;78.50
44111;DHT22;29774;52.664;5.074;2022-11-15T16:54:44;11.40;78.70
44111;DHT22;29774;52.664;5.074;2022-11-15T16:57:10;11.50;78.30
44111;DHT22;29774;52.664;5.074;2022-11-15T16:59:36;11.40;77.60
44111;DHT22;29774;52.664;5.074;2022-11-15T17:02:01;11.40;78.30
44111;DHT22;29774;52.664;5.074;2022-11-15T17:04:27;11.50;78.00
44111;DHT22;29774;52.664;5.074;2022-11-15T17:06:57;11.60;77.40
44111;DHT22;29774;52.664;5.074;2022-11-15T17:09:22;11.60;77.30
44111;DHT22;29774;52.664;5.074;2022-11-15T17:11:49;11.60;76.50
44111;DHT22;29774;52.664;5.074;2022-11-15T17:14:15;11.60;77.20
44111;DHT22;29774;52.664;5.074;2022-11-15T17:16:41;11.70;76.70
44111;DHT22;29774;52.664;5.074;2022-11-15T17:19:19;11.70;76.20
44111;DHT22;29774;52.664;5.074;2022-11-15T17:21:46;11.70;76.70
44111;DHT22;29774;52.664;5.074;2022-11-15T17:24:13;11.70;76.50
44111;DHT22;29774;52.664;5.074;2022-11-15T17:26:39;11.70;76.60
44111;DHT22;29774;52.664;5.074;2022-11-15T17:29:05;11.70;77.30
44111;DHT22;29774;52.664;5.074;2022-11-15T17:31:33;11.70;77.60
44111;DHT22;29774;52.664;5.074;2022-11-15T17:34:01;11.60;78.90
44111;DHT22;29774;52.664;5.074;2022-11-15T17:36:27;11.60;79.20
44111;DHT22;29774;52.664;5.074;2022-11-15T17:38:52;11.50;80.20
44111;DHT22;29774;52.664;5.074;2022-11-15T17:41:18;11.30;82.20
44111;DHT22;29774;52.664;5.074;2022-11-15T17:43:46;11.20;82.70
44111;DHT22;29774;52.664;5.074;2022-11-15T17:46:13;11.20;82.80
44111;DHT22;29774;52.664;5.074;2022-11-15T17:48:39;11.20;82.50
44111;DHT22;29774;52.664;5.074;2022-11-15T17:51:06;10.90;84.60